createdAt,value
2022-12-13T00:00:24.452Z,6.38
2022-12-13T00:05:26.281Z,6.55
2022-12-13T00:10:28.689Z,6.03
2022-12-13T00:15:30.566Z,6.57
2022-12-13T00:20:32.546Z,6.35
2022-12-13T00:25:34.322Z,6.15
2022-12-13T00:30:36.488Z,5.35
2022-12-13T00:35:42.271Z,6.85
2022-12-13T00:40:44.137Z,6.00
2022-12-13T00:45:46.043Z,5.85
2022-12-13T00:50:48.046Z,6.90
2022-12-13T00:55:49.827Z,5.75
2022-12-13T01:00:51.827Z,6.75
2022-12-13T01:11:16.215Z,5.30
2022-12-13T01:16:18.844Z,6.65
2022-12-13T01:21:22.200Z,7.38
2022-12-13T01:26:24.335Z,7.78
2022-12-13T01:31:26.767Z,7.38
2022-12-13T01:36:28.623Z,6.75
2022-12-13T01:41:34.195Z,6.20
2022-12-13T01:46:36.305Z,6.30
2022-12-13T01:52:00.921Z,8.23
2022-12-13T01:57:06.855Z,6.95
2022-12-13T02:02:12.264Z,6.93
2022-12-13T02:07:23.035Z,6.85
2022-12-13T02:12:32.144Z,7.97
2022-12-13T02:17:45.923Z,5.82
2022-12-13T02:23:05.944Z,6.75
2022-12-13T02:28:30.568Z,7.15
2022-12-13T02:33:43.522Z,6.40
2022-12-13T02:39:09.400Z,6.65
2022-12-13T02:44:22.404Z,6.15
2022-12-13T02:49:30.091Z,7.20
2022-12-13T02:54:31.900Z,6.90
2022-12-13T02:59:39.975Z,6.57
2022-12-13T03:05:45.840Z,7.20
2022-12-13T03:11:09.766Z,8.63
2022-12-13T03:16:40.275Z,6.95
2022-12-13T03:21:48.186Z,7.05
2022-12-13T03:26:51.906Z,7.53
2022-12-13T03:31:54.684Z,6.65
2022-12-13T03:36:56.595Z,6.20
2022-12-13T03:42:02.930Z,7.00
2022-12-13T03:47:04.712Z,6.93
2022-12-13T03:52:06.466Z,6.85
2022-12-13T03:57:08.228Z,6.53
2022-12-13T04:02:10.078Z,6.60
2022-12-13T04:07:22.089Z,5.90
2022-12-13T04:12:48.669Z,6.15
2022-12-13T04:17:51.247Z,7.45
2022-12-13T04:22:53.186Z,6.10
2022-12-13T04:27:54.964Z,5.88
2022-12-13T04:32:56.931Z,7.25
2022-12-13T04:37:58.771Z,7.22
2022-12-13T04:43:00.529Z,6.22
2022-12-13T04:48:02.350Z,7.15
2022-12-13T04:53:04.167Z,10.18
2022-12-13T04:58:05.945Z,11.98
2022-12-13T05:03:08.295Z,11.38
2022-12-13T05:08:10.132Z,9.25
2022-12-13T05:13:11.945Z,8.68
2022-12-13T05:18:14.042Z,8.95
2022-12-13T05:23:22.329Z,7.60
2022-12-13T05:28:28.965Z,6.57
2022-12-13T05:33:30.925Z,7.68
2022-12-13T05:38:32.702Z,6.75
2022-12-13T05:43:42.839Z,7.97
2022-12-13T05:48:45.303Z,8.07
2022-12-13T05:53:51.649Z,7.30
2022-12-13T05:58:55.334Z,7.20
2022-12-13T06:03:57.238Z,6.43
2022-12-13T06:08:59.806Z,7.10
2022-12-13T06:14:01.846Z,7.32
2022-12-13T06:19:04.740Z,6.35
2022-12-13T06:24:08.780Z,7.57
2022-12-13T06:29:11.292Z,7.93
2022-12-13T06:34:15.381Z,8.88
2022-12-13T06:39:17.614Z,7.07
2022-12-13T06:44:19.423Z,6.40
2022-12-13T06:49:21.533Z,8.45
2022-12-13T06:54:24.116Z,7.20
2022-12-13T06:59:25.975Z,6.97
2022-12-13T07:04:29.252Z,6.82
2022-12-13T07:09:33.371Z,7.22
2022-12-13T07:14:40.904Z,6.35
2022-12-13T07:19:44.398Z,6.20
2022-12-13T07:24:46.627Z,7.22
2022-12-13T07:29:48.527Z,5.90
2022-12-13T07:34:50.963Z,7.18
2022-12-13T07:39:54.683Z,8.00
2022-12-13T07:45:00.722Z,6.57
2022-12-13T07:50:02.736Z,6.78
2022-12-13T07:55:05.833Z,6.90
2022-12-13T08:00:08.352Z,6.03
2022-12-13T08:05:26.695Z,6.25
2022-12-13T08:10:29.874Z,5.30
2022-12-13T08:15:32.084Z,5.82
2022-12-13T08:20:34.018Z,4.95
2022-12-13T08:25:38.289Z,4.97
2022-12-13T08:30:40.106Z,4.60
2022-12-13T08:35:42.051Z,5.45
2022-12-13T08:40:44.092Z,5.82
2022-12-13T08:45:45.903Z,6.68
2022-12-13T08:50:47.666Z,6.05
2022-12-13T08:55:49.466Z,6.07
2022-12-13T09:00:51.302Z,5.85
2022-12-13T09:05:53.931Z,5.97
2022-12-13T09:11:11.388Z,5.72
2022-12-13T09:16:24.997Z,5.25
2022-12-13T09:21:31.428Z,7.30
2022-12-13T09:26:37.545Z,6.15
2022-12-13T09:31:40.741Z,5.32
2022-12-13T09:36:42.986Z,4.43
2022-12-13T09:41:49.526Z,4.18
2022-12-13T09:46:54.662Z,6.28
2022-12-13T09:52:11.141Z,5.05
2022-12-13T09:57:34.411Z,5.80
2022-12-13T10:03:02.932Z,7.00
2022-12-13T10:08:12.180Z,6.03
2022-12-13T10:13:23.125Z,5.72
2022-12-13T10:18:35.287Z,5.13
2022-12-13T10:23:59.923Z,5.50
2022-12-13T10:29:05.543Z,4.55
2022-12-13T10:34:25.741Z,4.82
2022-12-13T10:39:42.186Z,4.53
2022-12-13T10:44:44.993Z,4.35
2022-12-13T10:49:59.492Z,4.55
2022-12-13T10:55:23.028Z,7.57
2022-12-13T11:00:40.038Z,6.13
2022-12-13T11:05:42.254Z,6.20
2022-12-13T11:10:44.217Z,4.40
2022-12-13T11:15:46.123Z,4.72
2022-12-13T11:21:09.426Z,3.53
2022-12-13T11:26:24.469Z,3.38
2022-12-13T11:31:41.612Z,2.55
2022-12-13T11:37:08.049Z,2.25
2022-12-13T11:42:27.991Z,3.35
2022-12-13T11:47:44.500Z,3.55
2022-12-13T11:52:54.740Z,4.50
2022-12-13T11:58:53.530Z,3.90
2022-12-13T12:04:00.336Z,4.05
2022-12-13T12:09:06.633Z,6.05
2022-12-13T12:14:50.030Z,3.47
2022-12-13T12:19:57.503Z,4.00
2022-12-13T12:25:31.362Z,3.60
2022-12-13T12:30:42.017Z,3.28
2022-12-13T12:36:02.144Z,3.92
2022-12-13T12:41:17.297Z,3.80
2022-12-13T12:46:28.577Z,4.47
2022-12-13T12:51:56.403Z,4.57
2022-12-13T12:57:11.072Z,4.80
2022-12-13T13:02:31.467Z,4.55
2022-12-13T13:07:51.519Z,4.82
2022-12-13T13:13:11.514Z,4.28
2022-12-13T13:18:52.371Z,5.00
2022-12-13T13:24:14.602Z,5.78
2022-12-13T13:29:28.643Z,4.72
2022-12-13T13:34:32.106Z,5.97
2022-12-13T13:39:54.113Z,6.18
2022-12-13T13:45:00.650Z,6.28
2022-12-13T13:50:08.220Z,6.30
2022-12-13T14:01:02.012Z,6.13
2022-12-13T14:06:45.323Z,7.95
2022-12-13T14:11:52.971Z,8.57
2022-12-13T14:22:02.601Z,7.93
2022-12-13T14:27:30.764Z,8.02
2022-12-13T14:37:39.041Z,7.60
2022-12-13T14:42:41.919Z,8.07
2022-12-13T14:47:50.393Z,8.63
2022-12-13T14:52:52.681Z,9.75
2022-12-13T14:57:57.732Z,9.45
2022-12-13T15:03:02.229Z,9.50
2022-12-13T15:08:10.202Z,8.38
2022-12-13T15:13:24.373Z,9.02
2022-12-13T15:18:28.192Z,8.00
2022-12-13T15:23:49.241Z,8.23
2022-12-13T15:28:57.663Z,8.40
2022-12-13T15:34:33.945Z,8.40
2022-12-13T15:39:39.055Z,8.50
2022-12-13T15:44:48.063Z,9.23
2022-12-13T15:49:50.466Z,8.68
2022-12-13T15:55:04.785Z,8.75
2022-12-13T16:00:18.794Z,8.80
2022-12-13T16:05:29.640Z,8.35
2022-12-13T16:10:31.952Z,10.18
2022-12-13T16:15:59.840Z,9.00
2022-12-13T16:21:02.333Z,9.68
2022-12-13T16:26:08.738Z,14.00
2022-12-13T16:31:18.133Z,14.57
2022-12-13T16:36:20.447Z,12.70
2022-12-13T16:41:22.463Z,13.07
2022-12-13T16:47:17.900Z,13.52
2022-12-13T16:51:50.438Z,12.35
2022-12-13T16:56:54.334Z,11.57
2022-12-13T17:01:56.191Z,10.82
2022-12-13T17:06:57.957Z,10.30
2022-12-13T17:11:59.809Z,8.23
2022-12-13T17:17:01.745Z,8.50
2022-12-13T17:22:03.855Z,9.35
2022-12-13T17:27:05.706Z,9.50
2022-12-13T17:32:07.512Z,9.98
2022-12-13T17:37:10.734Z,10.88
2022-12-13T17:42:12.750Z,11.18
2022-12-13T17:47:14.665Z,10.35
2022-12-13T17:52:16.492Z,8.80
2022-12-13T17:57:18.266Z,9.23
2022-12-13T18:02:23.121Z,8.23
2022-12-13T18:07:25.016Z,8.75
2022-12-13T18:12:27.010Z,7.63
2022-12-13T18:18:01.632Z,7.65
2022-12-13T18:22:55.946Z,8.80
2022-12-13T18:28:01.030Z,7.82
2022-12-13T18:33:05.144Z,8.20
2022-12-13T18:38:06.966Z,8.18
2022-12-13T18:43:08.793Z,8.00
2022-12-13T18:48:10.747Z,8.02
2022-12-13T18:53:12.835Z,8.77
2022-12-13T18:58:15.575Z,7.78
2022-12-13T19:03:17.436Z,7.13
2022-12-13T19:08:19.283Z,10.13
2022-12-13T19:13:23.176Z,9.23
2022-12-13T19:18:25.219Z,7.50
2022-12-13T19:23:27.427Z,9.40
2022-12-13T19:28:29.465Z,8.80
2022-12-13T19:33:32.582Z,9.25
2022-12-13T19:38:35.298Z,6.90
2022-12-13T19:43:37.483Z,7.80
2022-12-13T19:48:39.318Z,8.13
2022-12-13T19:53:41.609Z,8.18
2022-12-13T19:58:44.637Z,7.93
2022-12-13T20:03:47.030Z,9.38
2022-12-13T20:08:49.715Z,8.38
2022-12-13T20:13:55.042Z,9.73
2022-12-13T20:18:59.486Z,10.82
2022-12-13T20:24:01.372Z,10.65
2022-12-13T20:29:03.152Z,10.40
2022-12-13T20:34:09.216Z,11.80
2022-12-13T20:39:13.474Z,10.82
2022-12-13T20:44:15.401Z,9.75
2022-12-13T20:49:17.571Z,9.52
2022-12-13T20:54:19.326Z,9.45
2022-12-13T20:59:21.371Z,10.85
2022-12-13T21:04:23.355Z,10.65
2022-12-13T21:09:26.239Z,13.07
2022-12-13T21:14:29.185Z,13.30
2022-12-13T21:19:39.991Z,16.55
2022-12-13T21:24:42.493Z,16.20
2022-12-13T21:29:44.243Z,15.40
2022-12-13T21:34:46.208Z,16.10
2022-12-13T21:39:48.009Z,13.70
2022-12-13T21:44:49.861Z,14.48
2022-12-13T21:49:51.741Z,11.63
2022-12-13T21:55:15.274Z,12.27
2022-12-13T22:00:16.434Z,10.65
2022-12-13T22:05:20.136Z,9.82
2022-12-13T22:10:21.931Z,9.45
2022-12-13T22:15:23.851Z,10.70
2022-12-13T22:20:25.646Z,9.63
2022-12-13T22:25:27.606Z,9.00
2022-12-13T22:30:29.406Z,9.90
2022-12-13T22:35:31.116Z,8.98
2022-12-13T22:40:33.963Z,9.68
2022-12-13T22:45:36.267Z,9.90
2022-12-13T22:50:38.275Z,8.93
2022-12-13T22:55:40.061Z,9.15
2022-12-13T23:00:42.584Z,9.13
2022-12-13T23:05:44.401Z,8.32
2022-12-13T23:11:04.672Z,7.55
2022-12-13T23:16:07.052Z,6.78
2022-12-13T23:21:08.865Z,6.45
2022-12-13T23:26:16.383Z,8.35
2022-12-13T23:36:23.928Z,6.13
2022-12-13T23:41:33.484Z,6.18
2022-12-13T23:46:36.376Z,6.10
2022-12-13T23:51:38.191Z,7.10
2022-12-13T23:56:39.946Z,6.57
